createdAt,value
2018-12-22T00:00:46.849Z,97447.61
2018-12-22T00:03:21.493Z,97444.53
2018-12-22T00:05:56.682Z,97450.27
2018-12-22T00:08:31.608Z,97448.84
2018-12-22T00:11:06.659Z,97445.55
2018-12-22T00:13:40.425Z,97439.45
2018-12-22T00:16:15.460Z,97444.23
2018-12-22T00:18:50.440Z,97457.39
2018-12-22T00:21:25.286Z,97453.27
2018-12-22T00:24:00.062Z,97458.30
2018-12-22T00:26:34.941Z,97455.73
2018-12-22T00:29:09.661Z,97464.25
2018-12-22T00:31:44.459Z,97454.95
2018-12-22T00:34:19.227Z,97456.14
2018-12-22T00:36:54.185Z,97453.12
2018-12-22T00:39:28.935Z,97459.86
2018-12-22T00:42:05.790Z,97469.86
2018-12-22T00:44:39.814Z,97464.28
2018-12-22T00:47:14.585Z,97468.98
2018-12-22T00:49:48.667Z,97475.02
2018-12-22T00:52:27.921Z,97479.99
2018-12-22T00:55:03.250Z,97469.91
2018-12-22T00:57:36.299Z,97482.12
2018-12-22T01:00:10.457Z,97481.72
2018-12-22T01:02:45.373Z,97488.38
2018-12-22T01:05:20.509Z,97476.41
2018-12-22T01:07:53.582Z,97483.89
2018-12-22T01:10:27.224Z,97479.24
2018-12-22T01:13:04.078Z,97476.34
2018-12-22T01:15:39.041Z,97478.67
2018-12-22T01:18:16.121Z,97472.52
2018-12-22T01:26:32.003Z,97485.05
2018-12-22T01:29:09.530Z,97483.63
2018-12-22T01:31:48.833Z,97483.28
2018-12-22T01:34:23.067Z,97479.99
2018-12-22T01:36:57.903Z,97482.49
2018-12-22T01:39:32.073Z,97488.34
2018-12-22T01:42:07.024Z,97477.86
2018-12-22T01:44:42.091Z,97480.54
2018-12-22T01:47:17.065Z,97481.79
2018-12-22T01:49:52.008Z,97495.42
2018-12-22T01:52:29.573Z,97488.27
2018-12-22T01:55:04.773Z,97485.33
2018-12-22T01:57:39.422Z,97487.28
2018-12-22T02:00:14.322Z,97493.65
2018-12-22T02:02:49.257Z,97499.89
2018-12-22T02:05:24.133Z,97496.55
2018-12-22T02:08:01.470Z,97494.63
2018-12-22T02:10:34.882Z,97512.68
2018-12-22T02:13:09.742Z,97505.00
2018-12-22T02:15:44.604Z,97507.55
2018-12-22T02:18:21.874Z,97500.66
2018-12-22T02:20:56.618Z,97506.64
2018-12-22T02:23:30.594Z,97504.14
2018-12-22T02:26:09.998Z,97507.62
2018-12-22T02:28:43.409Z,97508.62
2018-12-22T02:31:18.407Z,97501.66
2018-12-22T02:33:57.773Z,97500.09
2018-12-22T02:36:32.306Z,97507.75
2018-12-22T02:39:07.145Z,97504.48
2018-12-22T02:41:42.282Z,97506.89
2018-12-22T02:44:21.795Z,97496.27
2018-12-22T02:46:56.281Z,97506.89
2018-12-22T02:49:31.173Z,97505.18
2018-12-22T02:52:08.095Z,97494.11
2018-12-22T02:54:43.295Z,97502.89
2018-12-22T02:57:20.176Z,97506.50
2018-12-22T02:59:55.448Z,97515.61
2018-12-22T03:02:30.331Z,97506.95
2018-12-22T03:05:05.302Z,97503.56
2018-12-22T03:07:42.225Z,97503.28
2018-12-22T03:10:17.234Z,97506.05
2018-12-22T03:12:48.769Z,97495.77
2018-12-22T03:15:22.906Z,97494.78
2018-12-22T03:17:57.767Z,97482.89
2018-12-22T03:20:32.564Z,97494.97
2018-12-22T03:23:07.368Z,97488.81
2018-12-22T03:25:42.442Z,97490.77
2018-12-22T03:28:19.277Z,97493.53
2018-12-22T03:30:54.373Z,97495.81
2018-12-22T03:33:31.288Z,97495.67
2018-12-22T03:36:06.939Z,97502.96
2018-12-22T03:38:41.873Z,97500.25
2018-12-22T03:41:15.667Z,97503.47
2018-12-22T03:43:50.716Z,97501.64
2018-12-22T03:46:25.256Z,97494.09
2018-12-22T03:49:00.856Z,97495.06
2018-12-22T03:51:35.553Z,97501.22
2018-12-22T03:54:14.938Z,97499.05
2018-12-22T03:56:49.343Z,97501.48
2018-12-22T03:59:25.015Z,97503.84
2018-12-22T04:01:59.350Z,97513.06
2018-12-22T04:04:34.172Z,97514.96
2018-12-22T04:07:08.869Z,97515.20
2018-12-22T04:09:42.919Z,97522.27
2018-12-22T04:12:17.907Z,97514.06
2018-12-22T04:14:52.752Z,97532.07
2018-12-22T04:17:27.369Z,97535.89
2018-12-22T04:20:02.856Z,97534.25
2018-12-22T04:22:38.434Z,97533.45
2018-12-22T04:25:13.806Z,97524.80
2018-12-22T04:27:47.815Z,97533.63
2018-12-22T04:30:24.850Z,97525.30
2018-12-22T04:32:59.690Z,97528.00
2018-12-22T04:35:34.782Z,97529.48
2018-12-22T04:38:09.639Z,97520.70
2018-12-22T04:40:44.478Z,97508.06
2018-12-22T04:43:23.733Z,97514.45
2018-12-22T04:45:58.342Z,97517.84
2018-12-22T04:48:35.433Z,97520.36
2018-12-22T04:51:10.140Z,97511.54
2018-12-22T04:53:45.122Z,97511.52
2018-12-22T04:56:15.886Z,97511.09
2018-12-22T04:58:47.205Z,97504.06
2018-12-22T05:01:22.695Z,97512.38
2018-12-22T05:03:56.798Z,97503.38
2018-12-22T05:06:31.882Z,97508.39
2018-12-22T05:09:06.588Z,97504.62
2018-12-22T05:11:41.208Z,97508.20
2018-12-22T05:14:16.005Z,97512.21
2018-12-22T05:16:50.874Z,97512.53
2018-12-22T05:19:22.173Z,97518.97
2018-12-22T05:21:56.280Z,97513.34
2018-12-22T05:24:31.122Z,97511.23
2018-12-22T05:27:04.775Z,97513.73
2018-12-22T05:29:41.550Z,97507.30
2018-12-22T05:32:16.599Z,97510.20
2018-12-22T05:34:51.584Z,97511.97
2018-12-22T05:37:26.534Z,97512.64
2018-12-22T05:39:57.955Z,97515.09
2018-12-22T05:42:33.051Z,97509.86
2018-12-22T05:45:07.887Z,97512.66
2018-12-22T05:47:42.586Z,97513.74
2018-12-22T05:50:17.582Z,97518.19
2018-12-22T05:52:52.658Z,97521.66
2018-12-22T05:55:27.653Z,97514.86
2018-12-22T05:58:02.779Z,97499.73
2018-12-22T06:00:37.595Z,97512.45
2018-12-22T06:03:12.437Z,97507.61
2018-12-22T06:05:47.447Z,97503.67
2018-12-22T06:08:22.445Z,97508.12
2018-12-22T06:10:57.336Z,97503.67
2018-12-22T06:13:32.138Z,97505.95
2018-12-22T06:16:06.073Z,97503.67
2018-12-22T06:18:40.919Z,97502.95
2018-12-22T06:21:15.925Z,97506.01
2018-12-22T06:23:50.754Z,97502.93
2018-12-22T06:26:27.551Z,97500.45
2018-12-22T06:29:02.631Z,97504.04
2018-12-22T06:31:37.541Z,97500.05
2018-12-22T06:34:12.703Z,97495.01
2018-12-22T06:36:47.521Z,97488.00
2018-12-22T06:39:23.288Z,97477.60
2018-12-22T06:41:57.177Z,97484.92
2018-12-22T06:44:30.810Z,97479.28
2018-12-22T06:47:05.571Z,97468.48
2018-12-22T06:49:42.546Z,97470.31
2018-12-22T06:52:17.365Z,97476.47
2018-12-22T06:54:52.417Z,97475.95
2018-12-22T06:57:28.100Z,97473.33
2018-12-22T07:00:03.357Z,97477.27
2018-12-22T07:02:37.102Z,97483.22
2018-12-22T07:05:12.123Z,97485.46
2018-12-22T07:07:46.507Z,97486.44
2018-12-22T07:10:22.083Z,97475.04
2018-12-22T07:12:57.018Z,97468.01
2018-12-22T07:15:31.845Z,97491.53
2018-12-22T07:18:06.995Z,97480.67
2018-12-22T07:20:41.665Z,97465.41
2018-12-22T07:23:12.427Z,97462.65
2018-12-22T07:25:45.686Z,97471.42
2018-12-22T07:28:20.794Z,97469.71
2018-12-22T07:30:57.959Z,97480.59
2018-12-22T07:33:32.594Z,97476.47
2018-12-22T07:36:10.106Z,97467.23
2018-12-22T07:38:45.301Z,97472.42
2018-12-22T07:41:18.324Z,97477.77
2018-12-22T07:43:53.586Z,97495.20
2018-12-22T07:46:28.353Z,97495.09
2018-12-22T07:49:03.326Z,97505.30
2018-12-22T07:51:37.261Z,97506.63
2018-12-22T07:54:08.662Z,97501.33
2018-12-22T07:56:44.058Z,97504.66
2018-12-22T07:59:19.042Z,97500.53
2018-12-22T08:01:53.957Z,97499.70
2018-12-22T08:04:33.528Z,97503.15
2018-12-22T08:07:07.948Z,97523.81
2018-12-22T08:09:42.719Z,97510.59
2018-12-22T08:12:19.720Z,97516.69
2018-12-22T08:14:56.531Z,97515.95
2018-12-22T08:17:30.340Z,97515.16
2018-12-22T08:20:05.411Z,97520.54
2018-12-22T08:22:39.064Z,97517.72
2018-12-22T08:25:13.885Z,97520.08
2018-12-22T08:27:48.800Z,97518.75
2018-12-22T08:30:25.597Z,97532.15
2018-12-22T08:32:59.398Z,97549.00
2018-12-22T08:35:33.086Z,97559.41
2018-12-22T08:38:10.011Z,97567.73
2018-12-22T08:40:44.642Z,97571.02
2018-12-22T08:43:19.668Z,97580.09
2018-12-22T08:45:52.817Z,97580.35
2018-12-22T08:48:28.358Z,97583.59
2018-12-22T08:51:03.119Z,97595.33
2018-12-22T08:53:38.061Z,97595.20
2018-12-22T08:56:18.240Z,97604.37
2018-12-22T08:58:58.330Z,97621.23
2018-12-22T09:01:32.804Z,97642.61
2018-12-22T09:04:08.496Z,97654.39
2018-12-22T09:06:42.382Z,97639.92
2018-12-22T09:09:17.248Z,97653.72
2018-12-22T09:11:52.104Z,97655.64
2018-12-22T09:14:27.155Z,97660.02
2018-12-22T09:17:02.054Z,97661.96
2018-12-22T09:19:42.431Z,97651.98
2018-12-22T09:22:22.561Z,97643.63
2018-12-22T09:24:56.903Z,97649.94
2018-12-22T09:27:31.942Z,97657.75
2018-12-22T09:30:08.730Z,97664.14
2018-12-22T09:32:42.172Z,97666.07
2018-12-22T09:35:15.281Z,97661.95
2018-12-22T09:37:50.227Z,97671.98
2018-12-22T09:40:25.217Z,97664.92
2018-12-22T09:43:00.194Z,97668.33
2018-12-22T09:45:37.957Z,97673.68
2018-12-22T09:48:12.976Z,97667.02
2018-12-22T09:50:47.791Z,97675.84
2018-12-22T09:53:20.877Z,97674.00
2018-12-22T09:55:58.610Z,97676.63
2018-12-22T09:58:33.349Z,97682.61
2018-12-22T10:01:09.451Z,97692.25
2018-12-22T10:03:43.268Z,97700.86
2018-12-22T10:06:18.686Z,97699.16
2018-12-22T10:08:52.838Z,97711.01
2018-12-22T10:11:33.115Z,97705.23
2018-12-22T10:14:08.637Z,97716.92
2018-12-22T10:16:43.591Z,97719.09
2018-12-22T10:19:18.484Z,97729.47
2018-12-22T10:21:52.809Z,97732.72
2018-12-22T10:24:26.490Z,97739.80
2018-12-22T10:27:07.879Z,97737.16
2018-12-22T10:29:43.180Z,97754.28
2018-12-22T10:32:19.061Z,97751.77
2018-12-22T10:34:58.985Z,97764.47
2018-12-22T10:37:33.482Z,97766.72
2018-12-22T10:40:07.156Z,97777.25
2018-12-22T10:42:48.124Z,97771.94
2018-12-22T10:45:24.179Z,97781.64
2018-12-22T10:47:59.597Z,97776.95
2018-12-22T10:50:35.161Z,97785.80
2018-12-22T10:53:10.213Z,97790.36
2018-12-22T10:55:44.279Z,97794.58
2018-12-22T10:58:19.234Z,97803.45
2018-12-22T11:00:53.215Z,97805.79
2018-12-22T11:03:28.095Z,97803.88
2018-12-22T11:06:02.282Z,97806.08
2018-12-22T11:08:37.078Z,97816.97
2018-12-22T11:11:12.140Z,97816.86
2018-12-22T11:13:43.923Z,97830.42
2018-12-22T11:16:28.994Z,97833.15
2018-12-22T11:19:12.388Z,97822.66
2018-12-22T11:24:35.873Z,97839.52
2018-12-22T11:27:21.659Z,97843.34
2018-12-22T11:29:58.926Z,97840.98
2018-12-22T11:32:36.894Z,97846.80
2018-12-22T11:35:16.684Z,97839.95
2018-12-22T11:37:56.788Z,97856.73
2018-12-22T11:40:34.120Z,97865.55
2018-12-22T11:43:06.943Z,97863.59
2018-12-22T11:45:42.601Z,97867.97
2018-12-22T11:49:19.149Z,97889.52
2018-12-22T11:51:53.011Z,97914.83
2018-12-22T11:54:33.913Z,97917.73
2018-12-22T11:57:06.913Z,97931.88
2018-12-22T11:59:41.984Z,97942.94
2018-12-22T12:02:16.156Z,97944.05
2018-12-22T12:04:47.555Z,97949.61
2018-12-22T12:07:18.363Z,97952.27
2018-12-22T12:09:50.710Z,97962.20
2018-12-22T12:12:21.590Z,97964.45
2018-12-22T12:14:55.301Z,97974.97
2018-12-22T12:17:35.678Z,97982.95
2018-12-22T12:20:06.804Z,97987.37
2018-12-22T12:22:38.380Z,97994.40
2018-12-22T12:25:12.198Z,98010.18
2018-12-22T12:27:44.179Z,98011.95
2018-12-22T12:30:17.683Z,98012.39
2018-12-22T12:32:52.888Z,98025.11
2018-12-22T12:35:27.298Z,98014.27
2018-12-22T12:38:08.893Z,98029.07
2018-12-22T12:40:46.422Z,98034.19
2018-12-22T12:43:26.964Z,98043.75
2018-12-22T12:46:07.153Z,98037.67
2018-12-22T12:48:41.091Z,98049.48
2018-12-22T12:51:14.477Z,98062.56
2018-12-22T12:53:47.719Z,98075.16
2018-12-22T12:56:19.213Z,98073.89
2018-12-22T12:58:52.874Z,98075.66
2018-12-22T13:01:24.503Z,98084.52
2018-12-22T13:04:03.329Z,98079.35
2018-12-22T13:06:37.424Z,98095.46
2018-12-22T13:09:09.435Z,98106.86
2018-12-22T13:11:42.906Z,98108.24
2018-12-22T13:14:17.307Z,98108.20
2018-12-22T13:16:50.358Z,98109.06
2018-12-22T13:19:21.860Z,98126.11
2018-12-22T13:21:55.516Z,98125.73
2018-12-22T13:24:27.189Z,98121.80
2018-12-22T13:27:00.466Z,98133.23
2018-12-22T13:29:33.641Z,98138.91
2018-12-22T13:32:09.623Z,98144.22
2018-12-22T13:34:47.994Z,98149.48
2018-12-22T13:37:21.377Z,98154.30
2018-12-22T13:40:01.710Z,98158.28
2018-12-22T13:42:43.593Z,98163.42
2018-12-22T13:45:17.168Z,98166.45
2018-12-22T13:47:52.831Z,98170.31
2018-12-22T13:50:23.671Z,98172.89
2018-12-22T13:52:57.471Z,98174.06
2018-12-22T13:55:30.721Z,98173.62
2018-12-22T14:00:59.420Z,98177.38
2018-12-22T14:03:39.783Z,98193.38
2018-12-22T14:06:19.610Z,98197.30
2018-12-22T14:08:55.174Z,98207.70
2018-12-22T14:11:30.074Z,98202.41
2018-12-22T14:14:05.574Z,98198.03
2018-12-22T14:16:47.156Z,98205.37
2018-12-22T14:19:22.960Z,98203.54
2018-12-22T14:21:58.728Z,98217.11
2018-12-22T14:24:36.611Z,98221.52
2018-12-22T14:27:12.069Z,98227.14
2018-12-22T14:29:49.124Z,98226.27
2018-12-22T14:32:26.951Z,98222.83
2018-12-22T14:35:06.236Z,98222.90
2018-12-22T14:37:44.270Z,98231.58
2018-12-22T14:43:19.862Z,98232.19
2018-12-22T14:45:53.952Z,98234.33
2018-12-22T14:48:34.475Z,98241.73
2018-12-22T14:51:11.436Z,98243.88
2018-12-22T14:53:46.179Z,98250.00
2018-12-22T14:56:18.463Z,98239.22
2018-12-22T14:58:53.762Z,98242.66
2018-12-22T15:01:33.245Z,98237.56
2018-12-22T15:04:12.940Z,98251.09
2018-12-22T15:06:47.635Z,98253.70
2018-12-22T15:09:22.259Z,98253.36
2018-12-22T15:11:57.196Z,98253.36
2018-12-22T15:14:32.813Z,98260.79
2018-12-22T15:17:07.761Z,98255.97
2018-12-22T15:19:42.704Z,98265.20
2018-12-22T15:22:17.526Z,98264.81
2018-12-22T15:24:52.459Z,98260.88
2018-12-22T15:27:29.572Z,98264.45
2018-12-22T15:30:08.932Z,98259.67
2018-12-22T15:32:44.556Z,98264.48
2018-12-22T15:35:18.366Z,98262.80
2018-12-22T15:37:58.611Z,98262.41
2018-12-22T15:40:34.122Z,98267.19
2018-12-22T15:43:08.000Z,98262.85
2018-12-22T15:45:42.895Z,98259.47
2018-12-22T15:48:17.809Z,98262.08
2018-12-22T15:50:52.971Z,98261.63
2018-12-22T15:53:27.850Z,98268.23
2018-12-22T15:56:01.907Z,98268.65
2018-12-22T15:58:37.270Z,98271.34
2018-12-22T16:01:11.212Z,98270.58
2018-12-22T16:03:46.109Z,98272.74
2018-12-22T16:06:21.222Z,98281.39
2018-12-22T16:08:56.105Z,98275.24
2018-12-22T16:11:31.015Z,98279.64
2018-12-22T16:14:05.875Z,98285.37
2018-12-22T16:16:40.910Z,98297.20
2018-12-22T16:19:20.349Z,98304.52
2018-12-22T16:21:54.877Z,98311.11
2018-12-22T16:24:29.759Z,98313.72
2018-12-22T16:27:04.940Z,98312.52
2018-12-22T16:29:40.916Z,98315.52
2018-12-22T16:32:16.511Z,98327.39
2018-12-22T16:35:02.514Z,98333.95
2018-12-22T16:37:37.383Z,98334.08
2018-12-22T16:40:11.543Z,98339.38
2018-12-22T16:42:45.395Z,98323.82
2018-12-22T16:45:24.792Z,98325.13
2018-12-22T16:48:00.232Z,98321.72
2018-12-22T16:50:36.422Z,98329.64
2018-12-22T16:53:15.809Z,98329.66
2018-12-22T16:55:55.637Z,98330.16
2018-12-22T16:58:32.376Z,98337.67
2018-12-22T17:01:23.203Z,98337.69
2018-12-22T17:03:56.101Z,98338.99
2018-12-22T17:06:31.396Z,98346.32
2018-12-22T17:09:07.194Z,98359.38
2018-12-22T17:11:41.815Z,98357.19
2018-12-22T17:14:16.630Z,98355.88
2018-12-22T17:16:50.402Z,98362.82
2018-12-22T17:19:26.125Z,98373.27
2018-12-22T17:22:06.711Z,98370.23
2018-12-22T17:24:45.664Z,98378.06
2018-12-22T17:27:22.718Z,98377.67
2018-12-22T17:29:59.537Z,98388.58
2018-12-22T17:32:35.075Z,98379.84
2018-12-22T17:35:11.566Z,98388.98
2018-12-22T17:37:46.311Z,98389.84
2018-12-22T17:40:21.415Z,98394.19
2018-12-22T17:42:54.489Z,98395.11
2018-12-22T17:45:31.856Z,98398.13
2018-12-22T17:48:06.928Z,98405.94
2018-12-22T17:50:42.107Z,98400.72
2018-12-22T17:53:17.706Z,98394.59
2018-12-22T17:55:54.545Z,98400.19
2018-12-22T17:58:34.727Z,98409.33
2018-12-22T18:01:05.714Z,98417.09
2018-12-22T18:03:43.006Z,98416.26
2018-12-22T18:06:20.780Z,98421.45
2018-12-22T18:08:56.027Z,98417.54
2018-12-22T18:11:30.606Z,98428.44
2018-12-22T18:14:04.711Z,98429.81
2018-12-22T18:16:39.724Z,98433.66
2018-12-22T18:19:14.834Z,98423.63
2018-12-22T18:21:55.443Z,98427.11
2018-12-22T18:24:30.297Z,98432.74
2018-12-22T18:27:05.300Z,98436.22
2018-12-22T18:29:40.292Z,98441.89
2018-12-22T18:32:15.214Z,98439.74
2018-12-22T18:34:51.714Z,98449.28
2018-12-22T18:37:29.093Z,98443.20
2018-12-22T18:40:08.793Z,98452.77
2018-12-22T18:42:49.585Z,98455.41
2018-12-22T18:45:23.996Z,98459.34
2018-12-22T18:47:56.923Z,98458.82
2018-12-22T18:50:31.587Z,98457.05
2018-12-22T18:53:11.766Z,98457.47
2018-12-22T18:55:45.229Z,98457.02
2018-12-22T18:58:20.203Z,98460.47
2018-12-22T19:00:55.238Z,98461.80
2018-12-22T19:03:35.524Z,98447.40
2018-12-22T19:06:06.733Z,98453.45
2018-12-22T19:08:41.290Z,98445.14
2018-12-22T19:11:16.963Z,98443.32
2018-12-22T19:13:51.928Z,98443.74
2018-12-22T19:16:26.817Z,98446.42
2018-12-22T19:19:02.256Z,98455.16
2018-12-22T19:21:36.640Z,98454.73
2018-12-22T19:24:11.892Z,98460.39
2018-12-22T19:26:49.566Z,98463.42
2018-12-22T19:29:24.470Z,98471.66
2018-12-22T19:31:59.182Z,98469.91
2018-12-22T19:34:34.280Z,98472.10
2018-12-22T19:37:09.298Z,98473.83
2018-12-22T19:39:46.339Z,98473.36
2018-12-22T19:42:21.246Z,98473.80
2018-12-22T19:45:02.834Z,98478.15
2018-12-22T19:47:37.357Z,98487.70
2018-12-22T19:50:15.096Z,98483.39
2018-12-22T19:52:50.469Z,98484.20
2018-12-22T19:55:24.075Z,98482.38
2018-12-22T19:57:58.975Z,98485.47
2018-12-22T20:00:34.386Z,98487.23
2018-12-22T20:03:08.837Z,98484.66
2018-12-22T20:05:43.011Z,98487.27
2018-12-22T20:08:20.483Z,98485.05
2018-12-22T20:10:55.403Z,98492.39
2018-12-22T20:13:30.354Z,98497.24
2018-12-22T20:16:08.966Z,98502.42
2018-12-22T20:18:43.443Z,98504.14
2018-12-22T20:21:24.640Z,98520.69
2018-12-22T20:23:59.161Z,98518.95
2018-12-22T20:26:33.814Z,98519.37
2018-12-22T20:29:15.595Z,98524.16
2018-12-22T20:31:53.687Z,98534.64
2018-12-22T20:34:31.613Z,98548.14
2018-12-22T20:37:07.094Z,98543.75
2018-12-22T20:39:44.039Z,98542.92
2018-12-22T20:42:19.604Z,98547.30
2018-12-22T20:44:54.842Z,98549.14
2018-12-22T20:47:30.036Z,98546.50
2018-12-22T20:50:04.728Z,98553.92
2018-12-22T20:52:39.476Z,98553.98
2018-12-22T20:55:14.485Z,98565.69
2018-12-22T20:57:50.210Z,98563.57
2018-12-22T21:00:29.624Z,98559.25
2018-12-22T21:03:05.069Z,98563.19
2018-12-22T21:05:42.046Z,98578.02
2018-12-22T21:08:17.155Z,98578.84
2018-12-22T21:10:54.766Z,98587.61
2018-12-22T21:13:29.423Z,98584.13
2018-12-22T21:16:04.433Z,98589.38
2018-12-22T21:18:38.283Z,98590.23
2018-12-22T21:21:25.041Z,98599.03
2018-12-22T21:24:02.860Z,98603.41
2018-12-22T21:26:40.835Z,98603.88
2018-12-22T21:29:15.504Z,98604.34
2018-12-22T21:31:50.303Z,98604.34
2018-12-22T21:34:28.436Z,98610.88
2018-12-22T21:37:03.296Z,98610.88
2018-12-22T21:39:38.161Z,98611.78
2018-12-22T21:42:18.575Z,98609.65
2018-12-22T21:44:53.905Z,98618.83
2018-12-22T21:47:27.770Z,98613.63
2018-12-22T21:50:08.034Z,98622.33
2018-12-22T21:52:50.081Z,98629.74
2018-12-22T21:55:25.306Z,98627.59
2018-12-22T21:57:58.417Z,98628.87
2018-12-22T22:00:33.166Z,98636.24
2018-12-22T22:03:10.503Z,98636.66
2018-12-22T22:05:47.498Z,98632.74
2018-12-22T22:08:24.201Z,98631.02
2018-12-22T22:11:01.575Z,98632.78
2018-12-22T22:13:36.287Z,98638.39
2018-12-22T22:16:11.387Z,98644.50
2018-12-22T22:18:48.259Z,98642.70
2018-12-22T22:21:27.650Z,98646.20
2018-12-22T22:24:02.878Z,98651.87
2018-12-22T22:26:37.680Z,98650.58
2018-12-22T22:29:12.647Z,98646.23
2018-12-22T22:31:47.634Z,98650.61
2018-12-22T22:34:22.649Z,98659.76
2018-12-22T22:36:55.653Z,98659.77
2018-12-22T22:39:35.184Z,98661.53
2018-12-22T22:42:10.329Z,98665.89
2018-12-22T22:44:43.515Z,98672.45
2018-12-22T22:47:18.491Z,98672.91
2018-12-22T22:49:53.589Z,98672.05
2018-12-22T22:52:30.871Z,98681.17
2018-12-22T22:55:05.622Z,98685.09
2018-12-22T22:57:40.817Z,98675.52
2018-12-22T23:00:26.388Z,98681.20
2018-12-22T23:03:04.170Z,98689.08
2018-12-22T23:05:37.558Z,98695.61
2018-12-22T23:08:12.264Z,98701.75
2018-12-22T23:10:45.149Z,98706.99
2018-12-22T23:13:18.082Z,98702.20
2018-12-22T23:15:50.425Z,98713.95
2018-12-22T23:18:23.750Z,98709.98
2018-12-22T23:20:55.225Z,98709.53
2018-12-22T23:23:28.699Z,98714.31
2018-12-22T23:26:01.775Z,98719.56
2018-12-22T23:28:34.822Z,98719.10
2018-12-22T23:31:09.813Z,98717.83
2018-12-22T23:33:45.185Z,98716.09
2018-12-22T23:36:16.517Z,98721.75
2018-12-22T23:38:49.937Z,98715.24
2018-12-22T23:41:23.851Z,98710.00
2018-12-22T23:43:56.914Z,98721.36
2018-12-22T23:46:30.050Z,98724.42
2018-12-22T23:49:03.800Z,98729.20
2018-12-22T23:51:36.793Z,98725.72
2018-12-22T23:54:10.641Z,98723.56
2018-12-22T23:56:43.626Z,98720.08
2018-12-22T23:59:19.385Z,98729.23
